Time;durP1;ratioP1;P1;durP2;ratioP2;P2;SDS_P1;SDS_P2;PMS_P1;PMS_P2;Temp;Humidity;BMP_temperature;BMP_pressure;BME280_temperature;BME280_humidity;BME280_pressure;Samples;Min_cycle;Max_cycle;Signal;HPM_P1;HPM_P2
2022/04/23 00:00:29;;;;;;;4.97;3.42;;;14.40;55.80;;;;;;5114016;28;20040;-72
2022/04/23 00:02:57;;;;;;;5.80;4.20;;;14.40;55.80;;;;;;5114202;28;20516;-72
2022/04/23 00:05:23;;;;;;;6.05;4.32;;;14.30;55.80;;;;;;5112913;28;20051;-72
2022/04/23 00:07:49;;;;;;;4.63;3.80;;;14.30;55.70;;;;;;5112852;28;20385;-72
2022/04/23 00:10:15;;;;;;;5.30;3.63;;;14.30;55.70;;;;;;5114159;28;20051;-72
2022/04/23 00:12:42;;;;;;;5.32;3.70;;;14.30;55.80;;;;;;5113960;28;20034;-72
2022/04/23 00:15:08;;;;;;;5.50;3.78;;;14.30;55.70;;;;;;5114014;28;20102;-72
2022/04/23 00:17:35;;;;;;;5.25;4.20;;;14.30;55.70;;;;;;5106817;28;20048;-72
2022/04/23 00:20:00;;;;;;;4.97;4.05;;;14.30;55.60;;;;;;5093488;28;20020;-72
2022/04/23 00:22:27;;;;;;;5.68;4.28;;;14.30;55.60;;;;;;5092125;28;20061;-72
2022/04/23 00:24:53;;;;;;;6.32;4.18;;;14.30;55.60;;;;;;5092223;28;20028;-72
2022/04/23 00:27:18;;;;;;;6.82;4.45;;;14.30;55.60;;;;;;5092133;28;20478;-72
2022/04/23 00:29:44;;;;;;;7.32;5.07;;;14.40;55.60;;;;;;5093611;28;20031;-72
2022/04/23 00:32:10;;;;;;;5.88;4.28;;;14.40;55.50;;;;;;5093456;28;20036;-72
2022/04/23 00:34:36;;;;;;;11.82;4.38;;;14.40;55.40;;;;;;5093229;28;20069;-72
2022/04/23 00:37:03;;;;;;;6.20;4.72;;;14.40;55.50;;;;;;5094430;28;20018;-75
2022/04/23 00:39:29;;;;;;;7.07;4.82;;;14.40;55.40;;;;;;5093016;28;20046;-72
2022/04/23 00:41:59;;;;;;;7.28;5.30;;;14.40;55.50;;;;;;5091829;28;20491;-72
2022/04/23 00:44:25;;;;;;;6.72;4.60;;;14.40;55.50;;;;;;5110337;28;20077;-72
2022/04/23 00:46:50;;;;;;;5.30;3.95;;;14.40;55.50;;;;;;5112983;28;20415;-72
2022/04/23 00:49:16;;;;;;;5.63;4.15;;;14.40;55.50;;;;;;5112125;28;20024;-72
2022/04/23 00:51:43;;;;;;;6.82;4.97;;;14.50;55.60;;;;;;5112987;28;20019;-72
2022/04/23 00:54:09;;;;;;;7.70;5.03;;;14.50;55.60;;;;;;5113351;28;20028;-72
2022/04/23 00:56:37;;;;;;;7.82;5.38;;;14.50;55.50;;;;;;5112826;28;20019;-72
2022/04/23 00:59:12;;;;;;;6.40;4.95;;;14.50;55.40;;;;;;5092623;28;20047;-72
2022/04/23 01:01:40;;;;;;;7.32;5.30;;;14.50;55.40;;;;;;5094369;28;20100;-72
2022/04/23 01:04:07;;;;;;;6.65;5.05;;;14.50;55.30;;;;;;5105428;28;20083;-72
2022/04/23 01:06:34;;;;;;;6.90;5.25;;;14.50;55.20;;;;;;5102977;28;20019;-72
2022/04/23 01:09:05;;;;;;;6.68;5.15;;;14.50;55.10;;;;;;5117224;28;20380;-72
2022/04/23 01:11:32;;;;;;;7.28;5.65;;;14.50;55.10;;;;;;5117192;27;20083;-72
2022/04/23 01:13:59;;;;;;;8.80;5.45;;;14.50;55.10;;;;;;5110995;28;20027;-72
2022/04/23 01:16:25;;;;;;;8.77;5.97;;;14.50;55.00;;;;;;5112680;28;20019;-72
2022/04/23 01:18:51;;;;;;;10.32;6.10;;;14.50;54.90;;;;;;5099703;28;20481;-72
2022/04/23 01:21:17;;;;;;;6.35;5.53;;;14.50;54.90;;;;;;5099621;28;20035;-72
2022/04/23 01:23:46;;;;;;;9.48;6.22;;;14.50;54.70;;;;;;5106713;28;20110;-72
2022/04/23 01:26:14;;;;;;;9.70;6.60;;;14.50;54.60;;;;;;5095593;28;20057;-72
2022/04/23 01:28:40;;;;;;;8.98;5.82;;;14.50;54.50;;;;;;5091164;28;20024;-72
2022/04/23 01:31:07;;;;;;;7.85;5.82;;;14.50;54.50;;;;;;5092446;28;20032;-72
2022/04/23 01:33:36;;;;;;;9.70;5.72;;;14.50;54.50;;;;;;5097133;28;20088;-72
2022/04/23 01:36:03;;;;;;;8.13;5.13;;;14.50;54.40;;;;;;5112671;28;20024;-72
2022/04/23 01:38:29;;;;;;;8.30;5.72;;;14.50;54.50;;;;;;5112547;28;20027;-72
2022/04/23 01:40:55;;;;;;;7.20;5.25;;;14.50;54.50;;;;;;5112439;28;20031;-72
2022/04/23 01:43:21;;;;;;;7.13;5.13;;;14.50;54.50;;;;;;5112407;28;20117;-72
2022/04/23 01:45:47;;;;;;;7.25;5.03;;;14.60;54.70;;;;;;5104273;28;20031;-72
2022/04/23 01:48:12;;;;;;;10.05;4.85;;;14.60;54.70;;;;;;5092772;28;20496;-72
2022/04/23 01:50:38;;;;;;;5.88;4.57;;;14.60;54.70;;;;;;5112172;28;20041;-72
2022/04/23 01:53:05;;;;;;;9.18;5.75;;;14.60;54.70;;;;;;5099611;28;20032;-72
2022/04/23 01:55:31;;;;;;;6.47;5.00;;;14.60;54.70;;;;;;5092018;28;20028;-72
2022/04/23 01:57:57;;;;;;;6.53;4.50;;;14.60;54.70;;;;;;5092009;28;20024;-72
2022/04/23 02:00:23;;;;;;;8.00;5.35;;;14.60;54.70;;;;;;5095308;28;20044;-72
2022/04/23 02:02:49;;;;;;;5.97;5.25;;;14.60;54.70;;;;;;5099944;28;20390;-72
2022/04/23 02:05:14;;;;;;;8.57;6.10;;;14.60;54.70;;;;;;5116010;28;20492;-72
2022/04/23 02:07:44;;;;;;;6.10;4.90;;;14.70;54.70;;;;;;5116259;28;20031;-72
2022/04/23 02:10:11;;;;;;;6.93;5.00;;;14.70;54.80;;;;;;5115801;28;20077;-72
2022/04/23 02:12:38;;;;;;;7.97;5.95;;;14.70;54.80;;;;;;5124220;27;20357;-72
2022/04/23 02:15:09;;;;;;;8.45;6.05;;;14.70;54.80;;;;;;5110925;27;20023;-72
2022/04/23 02:17:42;;;;;;;9.65;6.78;;;14.70;54.80;;;;;;5102799;27;20027;-72
2022/04/23 02:20:12;;;;;;;8.13;6.22;;;14.70;54.80;;;;;;5097302;27;20032;-72
2022/04/23 02:22:39;;;;;;;8.93;6.93;;;14.70;54.80;;;;;;5094497;28;20028;-72
2022/04/23 02:25:06;;;;;;;8.35;6.72;;;14.70;54.90;;;;;;5096699;28;20032;-71
2022/04/23 02:27:46;;;;;;;9.77;7.40;;;14.70;54.90;;;;;;5096672;28;20020;-72
2022/04/23 02:30:14;;;;;;;11.00;6.88;;;14.70;54.80;;;;;;5110672;27;20019;-71
2022/04/23 02:32:42;;;;;;;8.68;6.90;;;14.70;54.80;;;;;;5137755;27;20035;-72
2022/04/23 02:35:08;;;;;;;9.35;7.07;;;14.60;54.80;;;;;;5105076;27;20020;-72
2022/04/23 02:37:34;;;;;;;8.65;6.32;;;14.60;54.80;;;;;;5095057;28;20064;-72
2022/04/23 02:40:05;;;;;;;10.40;7.82;;;14.60;54.80;;;;;;5095085;28;20485;-72
2022/04/23 02:42:30;;;;;;;10.57;7.72;;;14.60;54.90;;;;;;5094993;28;20047;-72
2022/04/23 02:45:01;;;;;;;15.32;10.88;;;14.60;54.90;;;;;;5094775;28;20051;-72
2022/04/23 02:47:40;;;;;;;13.65;8.15;;;14.60;54.90;;;;;;5095069;28;20020;-72
2022/04/23 02:50:06;;;;;;;15.40;9.55;;;14.60;55.00;;;;;;5096136;28;20386;-72
2022/04/23 02:52:32;;;;;;;15.07;9.80;;;14.70;55.00;;;;;;5094979;28;20028;-72
2022/04/23 02:54:57;;;;;;;11.18;8.38;;;14.60;54.90;;;;;;5093640;28;20121;-72
2022/04/23 02:57:23;;;;;;;13.77;9.27;;;14.60;54.90;;;;;;5094819;28;20077;-72
2022/04/23 02:59:49;;;;;;;12.55;9.45;;;14.60;55.00;;;;;;5094530;28;20089;-72
2022/04/23 03:02:15;;;;;;;13.02;9.15;;;14.60;55.00;;;;;;5097234;28;20020;-72
2022/04/23 03:04:43;;;;;;;12.80;8.95;;;14.60;54.90;;;;;;5115070;28;20427;-72
2022/04/23 03:07:10;;;;;;;12.98;8.73;;;14.60;54.90;;;;;;5114827;27;20015;-72
2022/04/23 03:09:37;;;;;;;9.98;7.28;;;14.60;55.00;;;;;;5114454;28;20012;-72
2022/04/23 03:12:03;;;;;;;8.45;6.72;;;14.60;55.00;;;;;;5099590;28;20369;-72
2022/04/23 03:14:30;;;;;;;11.98;8.25;;;14.60;55.10;;;;;;5094508;28;20020;-72
2022/04/23 03:16:56;;;;;;;11.00;8.18;;;14.60;55.20;;;;;;5094385;28;20020;-72
2022/04/23 03:19:22;;;;;;;13.13;9.13;;;14.60;55.20;;;;;;5094637;28;20069;-72
2022/04/23 03:21:48;;;;;;;14.32;10.27;;;14.60;55.20;;;;;;5094270;28;20031;-72
2022/04/23 03:24:14;;;;;;;15.77;9.77;;;14.70;55.30;;;;;;5094526;28;20016;-72
2022/04/23 03:26:39;;;;;;;17.90;10.52;;;14.60;55.30;;;;;;5094488;28;20066;-72
2022/04/23 03:29:05;;;;;;;19.50;10.73;;;14.60;55.30;;;;;;5094650;28;20016;-72
2022/04/23 03:31:31;;;;;;;19.25;12.15;;;14.60;55.40;;;;;;5093430;28;20103;-72
2022/04/23 03:33:57;;;;;;;19.48;12.00;;;14.60;55.40;;;;;;5093779;28;20107;-72
2022/04/23 03:36:23;;;;;;;20.77;12.18;;;14.60;55.30;;;;;;5093498;28;20028;-72
2022/04/23 03:38:48;;;;;;;19.52;11.90;;;14.60;55.30;;;;;;5094106;28;20032;-73
2022/04/23 03:41:14;;;;;;;18.13;12.27;;;14.70;55.30;;;;;;5113252;28;20437;-72
2022/04/23 03:43:40;;;;;;;19.67;11.90;;;14.70;55.40;;;;;;5104152;28;20496;-73
2022/04/23 03:46:06;;;;;;;16.60;11.82;;;14.70;55.30;;;;;;5094104;28;20465;-72
2022/04/23 03:48:31;;;;;;;19.80;12.65;;;14.60;55.30;;;;;;5094135;28;20078;-72
2022/04/23 03:50:57;;;;;;;20.55;12.93;;;14.60;55.30;;;;;;5093881;28;20024;-72
2022/04/23 03:53:23;;;;;;;16.02;11.65;;;14.60;55.40;;;;;;5105270;28;20028;-72
2022/04/23 03:55:49;;;;;;;22.33;13.30;;;14.60;55.40;;;;;;5114310;28;20408;-72
2022/04/23 03:58:14;;;;;;;15.02;11.82;;;14.60;55.40;;;;;;5113939;28;20103;-72
2022/04/23 04:00:40;;;;;;;22.75;13.38;;;14.60;55.50;;;;;;5113985;28;20104;-72
2022/04/23 04:03:06;;;;;;;22.83;14.18;;;14.60;55.50;;;;;;5114233;28;20487;-72
2022/04/23 04:05:32;;;;;;;25.35;15.23;;;14.60;55.60;;;;;;5114179;28;20468;-72
2022/04/23 04:07:57;;;;;;;27.67;15.90;;;14.60;55.70;;;;;;5100133;28;20041;-72
2022/04/23 04:10:24;;;;;;;24.48;15.07;;;14.60;55.90;;;;;;5093739;28;20154;-73
2022/04/23 04:12:51;;;;;;;25.95;15.20;;;14.60;55.80;;;;;;5093744;28;20501;-72
2022/04/23 04:15:20;;;;;;;22.27;14.20;;;14.60;55.80;;;;;;5093722;28;20028;-72
2022/04/23 04:17:50;;;;;;;25.77;14.80;;;14.60;55.80;;;;;;5093470;28;20020;-72
2022/04/23 04:20:16;;;;;;;26.55;16.55;;;14.60;55.90;;;;;;5093576;28;20221;-72
2022/04/23 04:22:44;;;;;;;21.65;14.52;;;14.60;55.90;;;;;;5092942;28;20542;-72
2022/04/23 04:25:11;;;;;;;22.77;14.30;;;14.60;56.00;;;;;;5093530;28;20020;-72
2022/04/23 04:27:38;;;;;;;18.80;13.60;;;14.60;55.90;;;;;;5094586;28;20102;-72
2022/04/23 04:30:06;;;;;;;20.08;13.23;;;14.60;55.90;;;;;;5092205;28;20024;-72
2022/04/23 04:32:33;;;;;;;22.77;14.48;;;14.60;55.90;;;;;;5093353;28;20031;-72
2022/04/23 04:34:58;;;;;;;21.85;14.98;;;14.70;56.00;;;;;;5092778;28;20435;-72
2022/04/23 04:37:25;;;;;;;24.52;15.68;;;14.70;56.00;;;;;;5113555;28;20024;-72
2022/04/23 04:39:51;;;;;;;22.10;14.35;;;14.70;56.00;;;;;;5099883;28;20032;-72
2022/04/23 04:42:16;;;;;;;22.58;14.68;;;14.70;56.10;;;;;;5093218;28;20026;-72
2022/04/23 04:44:42;;;;;;;25.45;16.08;;;14.70;56.10;;;;;;5093163;28;20358;-72
2022/04/23 04:47:09;;;;;;;30.15;17.08;;;14.70;56.10;;;;;;5093038;28;20020;-72
2022/04/23 04:49:36;;;;;;;32.80;19.33;;;14.70;56.20;;;;;;5096824;28;20015;-72
2022/04/23 04:52:02;;;;;;;31.42;17.83;;;14.70;56.20;;;;;;5113509;28;20020;-72
2022/04/23 04:54:28;;;;;;;38.45;19.67;;;14.70;56.10;;;;;;5113357;28;20019;-72
2022/04/23 04:56:56;;;;;;;29.13;17.33;;;14.70;56.10;;;;;;5113328;28;20015;-72
2022/04/23 04:59:22;;;;;;;26.40;15.65;;;14.70;56.10;;;;;;5113050;28;20165;-72
2022/04/23 05:01:53;;;;;;;28.75;16.40;;;14.70;56.10;;;;;;5113204;28;20076;-72
2022/04/23 05:04:20;;;;;;;31.60;17.75;;;14.70;56.20;;;;;;5103326;28;20110;-72
2022/04/23 05:06:45;;;;;;;23.88;16.85;;;14.80;56.20;;;;;;5092814;28;20022;-72
2022/04/23 05:09:11;;;;;;;26.45;15.52;;;14.80;56.20;;;;;;5092796;28;20020;-72
2022/04/23 05:11:37;;;;;;;23.70;15.43;;;14.80;56.20;;;;;;5092904;28;20024;-72
2022/04/23 05:14:03;;;;;;;28.30;16.50;;;14.80;56.10;;;;;;5093161;28;20465;-72
2022/04/23 05:16:29;;;;;;;26.50;17.55;;;14.80;56.10;;;;;;5091432;28;20529;-72
2022/04/23 05:18:55;;;;;;;29.17;17.88;;;14.90;56.70;;;;;;5092984;28;20036;-72
2022/04/23 05:21:21;;;;;;;28.70;17.13;;;14.90;56.10;;;;;;5092681;28;20028;-72
2022/04/23 05:23:46;;;;;;;25.00;17.38;;;14.80;56.00;;;;;;5092812;28;20020;-72
2022/04/23 05:26:12;;;;;;;26.48;16.33;;;14.90;56.10;;;;;;5092682;28;20419;-72
2022/04/23 05:28:39;;;;;;;23.52;15.77;;;14.90;56.10;;;;;;5092689;28;20020;-72
2022/04/23 05:31:05;;;;;;;31.88;20.75;;;14.90;56.00;;;;;;5091291;28;20027;-72
2022/04/23 05:33:31;;;;;;;35.38;21.42;;;14.90;56.10;;;;;;5108381;28;20062;-72
2022/04/23 05:35:57;;;;;;;29.40;17.98;;;14.90;56.10;;;;;;5116810;28;20062;-72
2022/04/23 05:38:23;;;;;;;28.42;17.63;;;14.90;56.00;;;;;;5117077;28;20046;-72
2022/04/23 05:40:49;;;;;;;33.63;19.17;;;14.80;56.00;;;;;;5117352;28;20023;-72
2022/04/23 05:43:16;;;;;;;24.23;17.10;;;14.80;56.20;;;;;;5116898;28;20020;-72
2022/04/23 05:45:43;;;;;;;22.50;15.77;;;14.80;56.20;;;;;;5115615;28;20465;-72
2022/04/23 05:48:09;;;;;;;22.75;16.83;;;14.80;56.30;;;;;;5099360;28;20069;-72
2022/04/23 05:50:36;;;;;;;23.70;15.70;;;14.80;56.30;;;;;;5100003;28;20036;-72
2022/04/23 05:53:02;;;;;;;23.90;16.45;;;14.80;56.30;;;;;;5114312;28;20103;-72
2022/04/23 05:55:27;;;;;;;26.20;16.00;;;14.80;56.40;;;;;;5116720;28;20028;-72
2022/04/23 05:57:53;;;;;;;20.35;15.60;;;14.70;56.40;;;;;;5116675;28;20035;-72
2022/04/23 06:00:20;;;;;;;25.45;16.83;;;14.80;56.50;;;;;;5115077;28;20114;-72
2022/04/23 06:02:45;;;;;;;21.90;15.73;;;14.80;56.60;;;;;;5111991;28;20024;-72
2022/04/23 06:05:11;;;;;;;19.73;15.23;;;14.80;56.70;;;;;;5096354;28;20016;-72
2022/04/23 06:07:37;;;;;;;30.85;19.05;;;14.90;56.90;;;;;;5114647;28;20069;-72
2022/04/23 06:10:04;;;;;;;34.10;20.33;;;14.90;56.80;;;;;;5114714;28;20030;-72
2022/04/23 06:12:31;;;;;;;39.72;22.10;;;14.90;57.30;;;;;;5116489;28;20072;-72
2022/04/23 06:14:58;;;;;;;35.75;21.40;;;15.00;56.40;;;;;;5097459;28;20019;-72
2022/04/23 06:17:25;;;;;;;27.90;19.67;;;15.00;56.20;;;;;;5095901;28;20489;-72
2022/04/23 06:19:52;;;;;;;31.02;19.33;;;15.10;56.10;;;;;;5095628;28;20028;-71
2022/04/23 06:22:19;;;;;;;29.23;19.13;;;15.10;56.00;;;;;;5110430;28;20040;-72
2022/04/23 06:24:46;;;;;;;23.70;16.65;;;15.20;56.00;;;;;;5115786;28;20023;-72
2022/04/23 06:27:12;;;;;;;21.13;16.45;;;15.20;55.80;;;;;;5116070;28;20019;-72
2022/04/23 06:29:41;;;;;;;21.70;16.05;;;15.20;55.70;;;;;;5116088;28;20357;-72
2022/04/23 06:32:09;;;;;;;20.27;15.27;;;15.30;55.60;;;;;;5115999;28;20023;-72
2022/04/23 06:34:35;;;;;;;25.67;16.92;;;15.40;55.70;;;;;;5116008;28;20048;-71
2022/04/23 06:37:01;;;;;;;26.92;15.73;;;15.40;55.50;;;;;;5096692;28;20077;-71
2022/04/23 06:39:27;;;;;;;24.52;17.70;;;15.50;55.40;;;;;;5094091;28;20032;-72
2022/04/23 06:41:53;;;;;;;22.20;16.33;;;15.50;55.10;;;;;;5095176;28;20424;-72
2022/04/23 06:44:19;;;;;;;23.55;16.38;;;15.60;55.10;;;;;;5094531;28;20024;-72
2022/04/23 06:46:45;;;;;;;22.15;15.95;;;15.70;55.00;;;;;;5095222;28;20529;-72
2022/04/23 06:49:11;;;;;;;18.88;14.05;;;15.70;54.90;;;;;;5095081;28;20028;-72
2022/04/23 06:51:37;;;;;;;20.55;13.52;;;15.80;54.70;;;;;;5115628;28;20114;-72
2022/04/23 06:54:04;;;;;;;19.92;13.30;;;15.90;54.70;;;;;;5114200;28;20027;-72
2022/04/23 06:56:30;;;;;;;18.02;13.23;;;15.90;54.60;;;;;;5115584;28;20081;-72
2022/04/23 06:58:56;;;;;;;20.45;14.25;;;16.00;54.50;;;;;;5115252;28;20067;-72
2022/04/23 07:01:22;;;;;;;22.63;15.38;;;16.10;54.20;;;;;;5115340;28;20080;-72
2022/04/23 07:03:48;;;;;;;16.52;13.40;;;16.20;54.10;;;;;;5110413;28;20035;-72
2022/04/23 07:06:15;;;;;;;18.83;13.95;;;16.20;53.90;;;;;;5094947;28;20065;-73
2022/04/23 07:08:44;;;;;;;19.50;13.68;;;16.30;53.60;;;;;;5094920;28;20039;-73
2022/04/23 07:11:10;;;;;;;22.70;15.25;;;16.30;53.50;;;;;;5094762;28;20015;-72
2022/04/23 07:13:36;;;;;;;23.70;15.50;;;16.40;53.30;;;;;;5094820;28;20481;-73
2022/04/23 07:16:05;;;;;;;26.70;18.13;;;16.40;53.30;;;;;;5095684;28;20339;-72
2022/04/23 07:18:31;;;;;;;28.05;17.98;;;16.40;53.10;;;;;;5094683;28;20028;-72
2022/04/23 07:20:57;;;;;;;30.88;19.90;;;16.50;53.10;;;;;;5094607;28;20016;-73
2022/04/23 07:26:08;;;;;;;26.27;17.10;;;16.60;52.90;;;;;;5094635;28;20027;-73
2022/04/23 07:28:34;;;;;;;27.80;17.73;;;16.70;53.00;;;;;;5094563;28;20012;-73
2022/04/23 07:31:02;;;;;;;23.67;17.73;;;16.80;53.00;;;;;;5111003;28;20034;-73
2022/04/23 07:38:57;;;;;;;22.88;17.33;;;17.20;52.50;;;;;;5115004;28;20033;-73
2022/04/23 07:41:22;;;;;;;23.17;16.45;;;17.30;52.20;;;;;;5095408;28;20028;-73
2022/04/23 07:43:51;;;;;;;22.17;15.32;;;17.50;51.80;;;;;;5100118;28;20388;-73
2022/04/23 07:46:17;;;;;;;21.35;16.02;;;17.60;52.00;;;;;;5114596;28;20401;-73
2022/04/23 07:48:43;;;;;;;19.55;13.90;;;17.80;51.70;;;;;;5113073;28;20026;-72
2022/04/23 07:51:09;;;;;;;22.55;16.23;;;17.90;51.70;;;;;;5112691;28;20107;-73
2022/04/23 07:53:35;;;;;;;20.00;14.52;;;18.10;50.60;;;;;;5113146;28;20024;-73
2022/04/23 07:56:00;;;;;;;16.98;12.20;;;18.10;49.80;;;;;;5113145;28;20027;-72
2022/04/23 07:58:26;;;;;;;18.38;12.70;;;18.20;49.70;;;;;;5114089;28;20099;-73
2022/04/23 08:00:52;;;;;;;17.70;12.55;;;18.30;49.70;;;;;;5110219;28;20039;-72
2022/04/23 08:03:18;;;;;;;20.10;14.15;;;18.40;49.30;;;;;;5093870;28;20103;-73
2022/04/23 08:05:43;;;;;;;17.55;13.65;;;18.40;48.60;;;;;;5110126;28;20027;-73
2022/04/23 08:08:09;;;;;;;18.20;13.70;;;18.50;48.90;;;;;;5114055;28;20030;-73
2022/04/23 08:10:35;;;;;;;17.08;12.73;;;18.50;48.80;;;;;;5108583;28;20107;-73
2022/04/23 08:13:01;;;;;;;17.83;12.60;;;18.60;48.80;;;;;;5093667;28;20031;-73
2022/04/23 08:15:27;;;;;;;18.17;13.45;;;18.60;48.20;;;;;;5093677;28;20033;-73
2022/04/23 08:17:54;;;;;;;23.23;16.02;;;18.60;48.00;;;;;;5095592;28;20024;-73
2022/04/23 08:20:20;;;;;;;21.90;16.00;;;18.50;47.80;;;;;;5093428;28;20039;-71
2022/04/23 08:22:46;;;;;;;18.25;12.32;;;18.50;47.80;;;;;;5093481;28;20020;-72
2022/04/23 08:25:12;;;;;;;15.82;11.70;;;18.60;48.20;;;;;;5093509;28;20012;-73
2022/04/23 08:27:51;;;;;;;19.38;11.65;;;18.50;48.30;;;;;;5093582;28;20072;-73
2022/04/23 08:30:34;;;;;;;15.27;11.55;;;18.50;48.30;;;;;;5092128;28;20384;-73
2022/04/23 08:33:01;;;;;;;12.70;10.23;;;18.50;48.10;;;;;;5093648;28;20434;-73
2022/04/23 08:35:26;;;;;;;18.80;11.30;;;18.50;48.20;;;;;;5093181;28;20091;-73
2022/04/23 08:37:52;;;;;;;17.40;12.45;;;18.50;47.90;;;;;;5093148;28;20109;-73
2022/04/23 08:40:19;;;;;;;14.30;10.93;;;18.50;47.70;;;;;;5093902;28;20032;-73
2022/04/23 08:42:45;;;;;;;17.65;11.18;;;18.50;48.00;;;;;;5112197;28;20108;-73
2022/04/23 08:45:13;;;;;;;13.35;10.65;;;18.50;48.10;;;;;;5113653;28;20039;-73
2022/04/23 08:47:46;;;;;;;16.98;12.07;;;18.50;48.20;;;;;;5113473;28;20027;-73
2022/04/23 08:50:13;;;;;;;19.38;12.68;;;18.50;48.30;;;;;;5113456;28;20018;-73
2022/04/23 08:52:47;;;;;;;15.05;11.45;;;18.60;48.40;;;;;;5112962;28;20039;-71
2022/04/23 08:55:16;;;;;;;17.80;12.52;;;18.70;48.60;;;;;;5112740;28;20015;-71
2022/04/23 08:57:43;;;;;;;24.13;13.27;;;18.80;48.50;;;;;;5111392;28;20039;-71
2022/04/23 09:00:12;;;;;;;21.80;11.77;;;18.90;48.00;;;;;;5111455;28;20430;-71
2022/04/23 09:02:37;;;;;;;20.05;14.40;;;19.10;47.70;;;;;;5111929;28;20024;-71
2022/04/23 09:05:04;;;;;;;18.23;13.88;;;19.10;47.30;;;;;;5113206;28;20503;-71
2022/04/23 09:07:30;;;;;;;18.90;13.98;;;19.20;47.20;;;;;;5106313;28;20388;-71
2022/04/23 09:09:57;;;;;;;16.98;12.35;;;19.20;47.20;;;;;;5092708;28;20091;-71
2022/04/23 09:12:25;;;;;;;16.42;12.02;;;19.20;47.30;;;;;;5103341;28;20028;-71
2022/04/23 09:23:39;;;;;;;18.42;12.35;;;19.30;47.10;;;;;;5112222;28;20016;-72
2022/04/23 09:23:39;;;;;;;16.23;9.27;;;19.50;45.40;;;;;;5100868;28;20031;-72
2022/04/23 09:26:15;;;;;;;13.77;10.55;;;19.50;45.10;;;;;;5092556;28;20028;-72
2022/04/23 09:28:46;;;;;;;14.88;10.25;;;19.40;44.30;;;;;;5107534;28;20380;-72
2022/04/23 09:31:13;;;;;;;13.30;9.82;;;19.30;44.30;;;;;;5112802;28;20024;-72
2022/04/23 09:33:44;;;;;;;11.23;8.20;;;19.10;43.90;;;;;;5111598;28;20143;-73
2022/04/23 09:36:09;;;;;;;10.30;8.02;;;19.00;44.50;;;;;;5111577;28;20032;-73
2022/04/23 09:38:35;;;;;;;11.88;8.23;;;18.90;44.50;;;;;;5110980;28;20032;-72
2022/04/23 09:41:19;;;;;;;11.73;8.40;;;18.80;44.40;;;;;;5106073;28;20488;-73
2022/04/23 09:44:05;;;;;;;10.80;7.40;;;18.70;44.40;;;;;;5110306;28;20099;-72
2022/04/23 09:46:43;;;;;;;11.52;7.32;;;18.80;44.70;;;;;;5129906;28;20031;-72
2022/04/23 09:49:09;;;;;;;10.75;7.55;;;18.80;44.50;;;;;;5124311;27;20464;-72
2022/04/23 09:51:35;;;;;;;11.25;7.80;;;18.80;44.50;;;;;;5131817;27;20019;-72
2022/04/23 09:54:02;;;;;;;13.10;8.45;;;18.70;44.30;;;;;;5093344;28;20039;-72
2022/04/23 09:56:29;;;;;;;9.57;7.63;;;18.80;44.40;;;;;;5110460;28;20030;-73
2022/04/23 09:58:55;;;;;;;11.65;7.78;;;18.70;44.10;;;;;;5108583;28;20382;-72
2022/04/23 10:01:23;;;;;;;12.32;8.48;;;18.60;44.00;;;;;;5112548;28;20036;-72
2022/04/23 10:03:51;;;;;;;14.38;7.68;;;18.60;43.80;;;;;;5112528;28;20102;-72
2022/04/23 10:06:19;;;;;;;12.98;8.55;;;18.60;44.40;;;;;;5108339;28;20412;-72
2022/04/23 10:08:49;;;;;;;10.57;8.23;;;18.60;44.70;;;;;;5092194;28;20016;-72
2022/04/23 10:11:30;;;;;;;13.82;8.15;;;18.60;44.20;;;;;;5092261;28;20016;-72
2022/04/23 10:14:06;;;;;;;12.02;8.50;;;18.60;44.00;;;;;;5092186;28;20113;-73
2022/04/23 10:16:33;;;;;;;10.25;8.13;;;18.70;43.90;;;;;;5094698;28;20024;-73
2022/04/23 10:19:01;;;;;;;12.50;8.32;;;18.70;44.10;;;;;;5123458;27;20064;-73
2022/04/23 10:21:40;;;;;;;14.45;10.45;;;18.80;43.80;;;;;;5134248;27;20102;-73
2022/04/23 10:24:22;;;;;;;14.70;9.38;;;18.70;44.00;;;;;;5116146;28;20468;-73
2022/04/23 10:26:54;;;;;;;13.00;9.35;;;18.80;43.60;;;;;;5116398;28;20024;-73
2022/04/23 10:29:23;;;;;;;11.23;8.30;;;18.80;43.60;;;;;;5114809;28;20445;-72
2022/04/23 10:32:10;;;;;;;12.35;8.77;;;18.80;43.20;;;;;;5116105;28;20028;-72
2022/04/23 10:34:37;;;;;;;15.25;8.77;;;18.80;43.70;;;;;;5095747;28;20035;-72
2022/04/23 10:37:16;;;;;;;12.93;8.60;;;18.80;43.90;;;;;;5103238;28;20027;-72
2022/04/23 10:39:43;;;;;;;12.18;8.63;;;18.80;43.70;;;;;;5109719;28;20035;-72
2022/04/23 10:42:15;;;;;;;12.82;8.48;;;18.80;43.10;;;;;;5108259;28;20017;-73
2022/04/23 10:44:42;;;;;;;12.93;9.18;;;18.80;43.10;;;;;;5102058;28;20035;-73
2022/04/23 10:47:16;;;;;;;10.80;8.27;;;18.80;43.40;;;;;;5131207;27;20532;-73
2022/04/23 10:49:43;;;;;;;10.88;8.43;;;18.80;43.40;;;;;;5115067;27;20024;-73
2022/04/23 10:52:09;;;;;;;11.00;8.45;;;18.90;43.70;;;;;;5118005;27;20059;-72
2022/04/23 10:54:55;;;;;;;10.88;8.95;;;19.00;43.20;;;;;;5109545;28;20101;-73
2022/04/23 10:57:23;;;;;;;14.30;8.95;;;18.90;42.90;;;;;;5094432;28;20028;-73
2022/04/23 10:59:50;;;;;;;11.55;8.70;;;19.00;43.00;;;;;;5118934;27;20124;-72
2022/04/23 11:02:21;;;;;;;11.27;8.73;;;19.00;43.20;;;;;;5104444;28;20024;-73
2022/04/23 11:13:31;;;;;;;11.63;9.00;;;19.20;43.10;;;;;;5115336;28;20034;-73
2022/04/23 11:16:11;;;;;;;10.05;7.78;;;19.20;43.00;;;;;;5114893;28;20069;-73
2022/04/23 11:18:39;;;;;;;11.93;9.32;;;19.30;43.20;;;;;;5101906;28;20034;-73
2022/04/23 11:21:18;;;;;;;13.20;9.82;;;19.50;43.00;;;;;;5094425;28;20050;-73
2022/04/23 11:23:45;;;;;;;12.70;9.63;;;19.50;42.00;;;;;;5094995;28;20377;-73
2022/04/23 11:26:15;;;;;;;14.05;9.25;;;19.60;42.10;;;;;;5116683;27;20368;-73
2022/04/23 11:28:42;;;;;;;11.60;9.52;;;19.70;42.50;;;;;;5135315;27;20017;-73
2022/04/23 11:31:11;;;;;;;19.75;12.23;;;19.80;42.30;;;;;;5110726;27;20023;-72
2022/04/23 11:33:48;;;;;;;16.77;10.80;;;19.80;41.60;;;;;;5106841;28;20110;-73
2022/04/23 11:36:14;;;;;;;12.40;9.30;;;19.90;41.60;;;;;;5112825;28;20020;-73
2022/04/23 11:38:42;;;;;;;13.88;8.80;;;20.00;41.40;;;;;;5114550;28;20028;-73
2022/04/23 11:41:08;;;;;;;12.30;9.13;;;20.10;41.60;;;;;;5114346;28;20031;-73
2022/04/23 11:43:39;;;;;;;11.27;8.60;;;20.20;41.60;;;;;;5103675;28;20024;-73
2022/04/23 11:46:08;;;;;;;13.50;9.82;;;20.30;41.30;;;;;;5093999;28;20023;-73
2022/04/23 11:48:46;;;;;;;12.35;9.35;;;20.30;40.90;;;;;;5092499;28;20024;-73
2022/04/23 11:51:12;;;;;;;13.30;9.27;;;20.40;41.10;;;;;;5092581;28;20024;-73
2022/04/23 11:53:58;;;;;;;11.75;9.65;;;20.60;41.50;;;;;;5093731;28;20028;-73
2022/04/23 11:56:36;;;;;;;12.63;9.73;;;20.90;41.10;;;;;;5093798;28;20012;-73
2022/04/23 11:59:09;;;;;;;11.98;8.95;;;21.10;40.40;;;;;;5109846;28;20040;-73
2022/04/23 12:01:36;;;;;;;12.07;9.38;;;21.30;40.30;;;;;;5093751;28;20111;-73
2022/04/23 12:04:02;;;;;;;11.88;9.02;;;21.60;39.60;;;;;;5093697;28;20020;-73
2022/04/23 12:06:44;;;;;;;11.75;9.60;;;21.80;39.10;;;;;;5092683;28;20366;-73
2022/04/23 12:09:11;;;;;;;9.75;8.30;;;22.00;38.80;;;;;;5094063;28;20020;-72
2022/04/23 12:11:37;;;;;;;13.95;9.02;;;22.10;38.20;;;;;;5098447;28;20023;-72
2022/04/23 12:14:03;;;;;;;11.00;8.52;;;22.30;38.30;;;;;;5113848;28;20035;-72
2022/04/23 12:17:05;;;;;;;9.50;8.02;;;22.30;37.30;;;;;;5113704;28;20035;-72
2022/04/23 12:19:34;;;;;;;9.50;7.28;;;22.40;37.50;;;;;;5113794;28;20027;-72
2022/04/23 12:22:00;;;;;;;8.50;7.03;;;22.40;36.80;;;;;;5113582;28;20023;-72
2022/04/23 12:24:35;;;;;;;13.55;7.22;;;22.50;37.20;;;;;;5112280;28;20487;-72
2022/04/23 12:27:03;;;;;;;7.93;6.97;;;22.70;37.00;;;;;;5098666;28;20028;-72
2022/04/23 12:40:58;;;;;;;8.57;6.35;;;23.30;35.60;;;;;;5101940;28;20038;-72
2022/04/23 12:43:28;;;;;;;9.30;6.68;;;23.20;34.80;;;;;;5092212;28;20385;-73
2022/04/23 12:46:09;;;;;;;9.13;7.00;;;23.10;34.90;;;;;;5107729;28;20495;-72
2022/04/23 12:48:59;;;;;;;10.10;6.78;;;22.90;34.80;;;;;;5102707;28;20020;-73
2022/04/23 12:51:26;;;;;;;8.85;7.07;;;22.70;35.30;;;;;;5091809;28;20174;-72
2022/04/23 12:53:51;;;;;;;9.10;6.75;;;22.60;35.80;;;;;;5106270;28;20512;-73
2022/04/23 12:56:19;;;;;;;9.07;7.15;;;22.50;36.10;;;;;;5112797;28;20016;-72
2022/04/23 12:58:46;;;;;;;9.32;6.78;;;22.40;35.80;;;;;;5105090;28;20040;-72
2022/04/23 13:01:12;;;;;;;7.72;6.25;;;22.40;36.30;;;;;;5108017;28;20031;-72
2022/04/23 13:03:44;;;;;;;8.18;6.72;;;22.40;36.70;;;;;;5107709;27;20044;-72
2022/04/23 13:08:55;;;;;;;8.18;6.35;;;22.40;36.10;;;;;;5103910;28;20038;-73
2022/04/23 13:11:26;;;;;;;7.13;6.03;;;22.40;36.10;;;;;;5101376;28;20384;-73
2022/04/23 13:13:57;;;;;;;8.45;6.57;;;22.50;36.40;;;;;;5095078;28;20394;-73
2022/04/23 13:16:25;;;;;;;9.07;6.55;;;22.60;36.00;;;;;;5107253;28;20020;-72